This is the latest recevied weather packets stored in our database for station/object SP9WP-10. If no packets are shown the sender has not sent any weather packets the latest 10 day(s).
| Time | Temp. | Humidity | Pressure | Rain* | Wind** | Luminosity | Snow |
|---|---|---|---|---|---|---|---|
| 1787865565 | 23.89° C | 46% | 997.8 hPa | - | - | - | - |
| 1787864965 | 24.44° C | 46% | 997.8 hPa | - | - | - | - |
| 1787864365 | 24.44° C | 46% | 997.9 hPa | - | - | - | - |
| 1787863764 | 24.44° C | 46% | 997.8 hPa | - | - | - | - |
| 1787863164 | 25° C | 47% | 997.9 hPa | - | - | - | - |
| 1787862564 | 25° C | 46% | 998 hPa | - | - | - | - |
| 1787861964 | 25° C | 47% | 998 hPa | - | - | - | - |
| 1787861364 | 25° C | 47% | 998 hPa | - | - | - | - |
| 1787860764 | 24.44° C | 47% | 998 hPa | - | - | - | - |
| 1787693116 | 18.89° C | 56% | 997.2 hPa | - | - | - | - |
| 1787692516 | 18.89° C | 56% | 997.1 hPa | - | - | - | - |
| 1787691915 | 19.44° C | 57% | 997 hPa | - | - | - | - |
| 1787691315 | 19.44° C | 58% | 997 hPa | - | - | - | - |
| 1787690714 | 19.44° C | 58% | 997 hPa | - | - | - | - |
| 1787690114 | 19.44° C | 58% | 997 hPa | - | - | - | - |
| 1787689513 | 19.44° C | 58% | 997.1 hPa | - | - | - | - |
| 1787688913 | 19.44° C | 58% | 997.1 hPa | - | - | - | - |
| 1787688313 | 20° C | 58% | 997.2 hPa | - | - | - | - |
| 1787687713 | 20° C | 58% | 997.1 hPa | - | - | - | - |
| 1787687113 | 20° C | 58% | 997.1 hPa | - | - | - | - |
| 1787686512 | 20° C | 57% | 997.1 hPa | - | - | - | - |
| 1787685912 | 20° C | 57% | 996.9 hPa | - | - | - | - |
| 1787685312 | 20.56° C | 56% | 996.8 hPa | - | - | - | - |
| 1787667559 | 21.67° C | 54% | 996.5 hPa | - | - | - | - |
| 1787666959 | 21.67° C | 54% | 996.3 hPa | - | - | - | - |
* Rain since midnight (hover to see other rain measurements)
** Current wind speed in m/s (hover to see current wind gust speed)